createdAt,value
2019-05-28T00:02:02.736Z,99261.20
2019-05-28T00:04:32.248Z,99261.20
2019-05-28T00:07:01.657Z,99260.20
2019-05-28T00:09:31.036Z,99261.97
2019-05-28T00:12:00.681Z,99269.20
2019-05-28T00:14:30.265Z,99271.44
2019-05-28T00:16:59.746Z,99270.30
2019-05-28T00:19:29.160Z,99258.44
2019-05-28T00:21:58.584Z,99252.55
2019-05-28T00:24:28.049Z,99240.38
2019-05-28T00:26:57.508Z,99240.38
2019-05-28T00:29:26.894Z,99236.02
2019-05-28T00:31:56.328Z,99233.50
2019-05-28T00:34:25.832Z,99225.63
2019-05-28T00:36:55.363Z,99233.20
2019-05-28T00:39:24.804Z,99237.02
2019-05-28T00:41:54.254Z,99243.82
2019-05-28T00:44:23.618Z,99243.82
2019-05-28T00:46:53.117Z,99244.22
2019-05-28T00:49:22.736Z,99240.58
2019-05-28T00:51:52.370Z,99239.97
2019-05-28T00:54:21.847Z,99232.23
2019-05-28T00:56:52.461Z,99227.94
2019-05-28T00:59:23.812Z,99225.89
2019-05-28T01:01:53.233Z,99225.44
2019-05-28T01:04:22.668Z,99224.25
2019-05-28T01:06:54.319Z,99213.94
2019-05-28T01:09:23.790Z,99211.58
2019-05-28T01:11:53.244Z,99213.41
2019-05-28T01:14:22.622Z,99212.91
2019-05-28T01:16:52.092Z,99213.63
2019-05-28T01:19:21.584Z,99216.43
2019-05-28T01:21:51.006Z,99219.71
2019-05-28T01:24:20.477Z,99213.56
2019-05-28T01:26:49.961Z,99218.18
2019-05-28T01:29:19.314Z,99213.41
2019-05-28T01:31:48.745Z,99207.59
2019-05-28T01:34:18.620Z,99208.92
2019-05-28T01:36:48.030Z,99211.09
2019-05-28T01:39:17.402Z,99203.09
2019-05-28T01:41:46.905Z,99192.05
2019-05-28T01:44:16.449Z,99204.69
2019-05-28T01:46:45.873Z,99205.99
2019-05-28T01:49:15.353Z,99208.43
2019-05-28T01:51:44.775Z,99206.03
2019-05-28T01:54:14.251Z,99200.11
2019-05-28T01:56:43.707Z,99200.70
2019-05-28T01:59:13.187Z,99195.63
2019-05-28T02:01:42.604Z,99203.98
2019-05-28T02:04:12.019Z,99197.67
2019-05-28T02:06:41.465Z,99196.24
2019-05-28T02:09:11.046Z,99195.75
2019-05-28T02:11:40.561Z,99195.59
2019-05-28T02:14:09.936Z,99201.54
2019-05-28T02:16:39.416Z,99198.03
2019-05-28T02:19:08.924Z,99195.98
2019-05-28T02:21:38.343Z,99206.41
2019-05-28T02:24:07.733Z,99209.05
2019-05-28T02:26:37.215Z,99216.69
2019-05-28T02:29:06.683Z,99216.81
2019-05-28T02:31:36.106Z,99209.49
2019-05-28T02:34:05.628Z,99207.67
2019-05-28T02:36:35.054Z,99204.30
2019-05-28T02:39:06.820Z,99208.43
2019-05-28T02:41:36.296Z,99209.14
2019-05-28T02:44:05.945Z,99207.45
2019-05-28T02:46:35.359Z,99211.84
2019-05-28T02:49:04.770Z,99222.25
2019-05-28T02:51:34.805Z,99224.65
2019-05-28T02:54:04.574Z,99219.67
2019-05-28T02:56:35.351Z,99218.41
2019-05-28T02:59:05.324Z,99219.39
2019-05-28T03:01:44.267Z,99213.61
2019-05-28T03:04:11.131Z,99210.71
2019-05-28T03:06:43.470Z,99212.29
2019-05-28T03:09:12.862Z,99219.54
2019-05-28T03:11:42.322Z,99215.69
2019-05-28T03:14:11.793Z,99214.34
2019-05-28T03:16:43.853Z,99217.86
2019-05-28T03:19:13.498Z,99225.84
2019-05-28T03:21:43.122Z,99211.08
2019-05-28T03:24:14.913Z,99214.09
2019-05-28T03:26:44.384Z,99217.73
2019-05-28T03:29:14.301Z,99214.91
2019-05-28T03:32:02.865Z,99216.41
2019-05-28T03:34:15.207Z,99218.56
2019-05-28T03:36:46.257Z,99222.69
2019-05-28T03:39:17.115Z,99220.25
2019-05-28T03:41:46.942Z,99218.86
2019-05-28T03:44:16.611Z,99223.71
2019-05-28T03:46:46.032Z,99216.30
2019-05-28T03:49:15.457Z,99213.76
2019-05-28T03:51:44.874Z,99209.49
2019-05-28T03:54:14.350Z,99210.02
2019-05-28T03:56:43.832Z,99211.23
2019-05-28T03:59:13.271Z,99204.39
2019-05-28T04:01:42.711Z,99197.69
2019-05-28T04:04:12.136Z,99203.08
2019-05-28T04:06:41.571Z,99206.59
2019-05-28T04:09:11.052Z,99213.61
2019-05-28T04:11:44.738Z,99206.88
2019-05-28T04:14:11.636Z,99206.88
2019-05-28T04:16:41.071Z,99201.78
2019-05-28T04:19:10.597Z,99207.86
2019-05-28T04:21:40.013Z,99214.31
2019-05-28T04:24:09.384Z,99209.10
2019-05-28T04:26:38.841Z,99206.23
2019-05-28T04:29:08.317Z,99206.77
2019-05-28T04:31:37.739Z,99211.23
2019-05-28T04:34:07.165Z,99212.93
2019-05-28T04:36:36.593Z,99210.97
2019-05-28T04:39:08.343Z,99212.56
2019-05-28T04:41:37.799Z,99212.86
2019-05-28T04:44:07.399Z,99211.47
2019-05-28T04:46:36.820Z,99211.69
2019-05-28T04:49:06.235Z,99213.16
2019-05-28T04:51:35.707Z,99215.64
2019-05-28T04:54:05.171Z,99207.34
2019-05-28T04:56:34.849Z,99215.22
2019-05-28T04:59:04.268Z,99210.09
2019-05-28T05:01:33.745Z,99209.65
2019-05-28T05:04:03.378Z,99211.91
2019-05-28T05:06:32.775Z,99215.56
2019-05-28T05:09:02.147Z,99207.18
2019-05-28T05:11:31.703Z,99208.58
2019-05-28T05:14:01.256Z,99215.43
2019-05-28T05:16:30.677Z,99222.45
2019-05-28T05:19:00.210Z,99210.05
2019-05-28T05:21:29.702Z,99207.61
2019-05-28T05:23:59.105Z,99209.22
2019-05-28T05:26:28.635Z,99204.14
2019-05-28T05:28:58.191Z,99208.66
2019-05-28T05:31:27.696Z,99199.33
2019-05-28T05:33:57.101Z,99199.73
2019-05-28T05:36:26.603Z,99209.52
2019-05-28T05:38:56.118Z,99207.44
2019-05-28T05:41:25.556Z,99209.13
2019-05-28T05:43:54.920Z,99206.93
2019-05-28T05:46:24.422Z,99209.27
2019-05-28T05:48:53.937Z,99206.41
2019-05-28T05:51:23.450Z,99204.23
2019-05-28T05:53:52.799Z,99206.27
2019-05-28T05:56:22.277Z,99207.59
2019-05-28T05:58:51.705Z,99209.94
2019-05-28T06:01:21.192Z,99206.21
2019-05-28T06:03:50.698Z,99213.43
2019-05-28T06:06:20.165Z,99209.37
2019-05-28T06:08:49.574Z,99204.67
2019-05-28T06:11:19.087Z,99204.46
2019-05-28T06:13:48.608Z,99203.98
2019-05-28T06:16:18.112Z,99194.73
2019-05-28T06:18:47.536Z,99196.39
2019-05-28T06:21:19.047Z,99193.09
2019-05-28T06:23:48.251Z,99194.11
2019-05-28T06:26:17.768Z,99190.55
2019-05-28T06:28:47.129Z,99188.02
2019-05-28T06:31:16.660Z,99187.05
2019-05-28T06:33:56.324Z,99179.94
2019-05-28T06:36:18.996Z,99179.84
2019-05-28T06:38:48.554Z,99186.02
2019-05-28T06:41:18.089Z,99176.61
2019-05-28T06:43:47.685Z,99167.88
2019-05-28T06:46:17.080Z,99164.80
2019-05-28T06:48:46.743Z,99166.25
2019-05-28T06:51:16.196Z,99162.09
2019-05-28T06:53:53.462Z,99160.10
2019-05-28T06:56:22.907Z,99155.23
2019-05-28T06:58:52.487Z,99157.16
2019-05-28T07:01:22.035Z,99156.33
2019-05-28T07:03:51.417Z,99157.17
2019-05-28T07:06:20.899Z,99150.98
2019-05-28T07:08:50.439Z,99151.27
2019-05-28T07:11:19.922Z,99146.80
2019-05-28T07:13:49.309Z,99136.52
2019-05-28T07:16:18.767Z,99133.36
2019-05-28T07:18:48.166Z,99135.84
2019-05-28T07:21:17.625Z,99132.16
2019-05-28T07:23:47.210Z,99136.86
2019-05-28T07:26:16.641Z,99129.05
2019-05-28T07:28:46.006Z,99131.62
2019-05-28T07:31:15.591Z,99131.29
2019-05-28T07:33:45.149Z,99126.91
2019-05-28T07:36:14.658Z,99114.17
2019-05-28T07:38:44.080Z,99111.48
2019-05-28T07:41:13.507Z,99118.31
2019-05-28T07:43:42.969Z,99112.33
2019-05-28T07:46:12.423Z,99115.50
2019-05-28T07:48:41.804Z,99109.14
2019-05-28T07:51:11.248Z,99106.05
2019-05-28T07:53:40.896Z,99106.52
2019-05-28T07:56:10.389Z,99107.11
2019-05-28T07:58:39.908Z,99104.45
2019-05-28T08:01:09.454Z,99104.45
2019-05-28T08:03:38.874Z,99112.73
2019-05-28T08:06:08.356Z,99111.19
2019-05-28T08:08:37.922Z,99109.74
2019-05-28T08:11:07.492Z,99112.95
2019-05-28T08:13:40.552Z,99101.55
2019-05-28T08:16:18.053Z,99103.27
2019-05-28T08:18:39.372Z,99092.02
2019-05-28T08:21:08.839Z,99087.20
2019-05-28T08:23:38.244Z,99091.23
2019-05-28T08:26:07.749Z,99086.36
2019-05-28T08:28:37.250Z,99094.47
2019-05-28T08:31:16.250Z,99096.95
2019-05-28T08:33:37.882Z,99088.38
2019-05-28T08:36:07.406Z,99081.77
2019-05-28T08:38:37.057Z,99087.17
2019-05-28T08:41:06.611Z,99078.28
2019-05-28T08:43:36.269Z,99069.34
2019-05-28T08:46:05.906Z,99067.09
2019-05-28T08:48:35.447Z,99067.77
2019-05-28T08:51:04.966Z,99065.97
2019-05-28T08:53:34.372Z,99061.34
2019-05-28T08:56:03.797Z,99059.85
2019-05-28T08:58:33.410Z,99065.45
2019-05-28T09:01:03.043Z,99054.27
2019-05-28T09:03:32.569Z,99051.64
2019-05-28T09:06:02.001Z,99053.23
2019-05-28T09:08:39.203Z,99048.95
2019-05-28T09:11:02.783Z,99047.05
2019-05-28T09:13:32.158Z,99035.30
2019-05-28T09:16:01.638Z,99031.27
2019-05-28T09:18:31.163Z,99026.28
2019-05-28T09:21:00.685Z,99021.55
2019-05-28T09:23:30.185Z,99007.93
2019-05-28T09:25:59.692Z,99005.91
2019-05-28T09:28:31.149Z,99001.08
2019-05-28T09:31:00.281Z,99005.13
2019-05-28T09:33:29.830Z,98995.37
2019-05-28T09:36:08.310Z,98990.09
2019-05-28T09:38:30.553Z,98990.81
2019-05-28T09:41:00.181Z,98992.23
2019-05-28T09:43:29.739Z,98986.31
2019-05-28T09:45:59.237Z,98981.89
2019-05-28T09:48:28.743Z,98973.66
2019-05-28T09:50:58.226Z,98971.30
2019-05-28T09:53:27.737Z,98968.10
2019-05-28T09:55:57.150Z,98962.06
2019-05-28T09:58:26.950Z,98954.66
2019-05-28T10:00:58.968Z,98949.78
2019-05-28T10:03:27.670Z,98951.77
2019-05-28T10:06:15.031Z,98935.38
2019-05-28T10:08:28.421Z,98934.09
2019-05-28T10:10:57.940Z,98935.89
2019-05-28T10:13:37.833Z,98929.25
2019-05-28T10:15:58.643Z,98921.81
2019-05-28T10:18:28.151Z,98918.00
2019-05-28T10:20:57.587Z,98917.09
2019-05-28T10:23:27.191Z,98917.33
2019-05-28T10:25:56.649Z,98911.88
2019-05-28T10:28:26.150Z,98903.64
2019-05-28T10:30:55.592Z,98898.45
2019-05-28T10:33:25.103Z,98896.03
2019-05-28T10:35:54.544Z,98883.16
2019-05-28T10:38:24.118Z,98881.60
2019-05-28T10:40:53.563Z,98871.14
2019-05-28T10:43:23.032Z,98873.97
2019-05-28T10:45:53.003Z,98863.22
2019-05-28T10:48:22.716Z,98849.59
2019-05-28T10:50:52.310Z,98848.52
2019-05-28T10:53:21.824Z,98848.58
2019-05-28T10:55:51.418Z,98844.82
2019-05-28T10:58:20.789Z,98835.93
2019-05-28T11:00:50.279Z,98829.22
2019-05-28T11:03:19.774Z,98824.92
2019-05-28T11:05:50.038Z,98816.65
2019-05-28T11:08:19.516Z,98804.06
2019-05-28T11:10:49.075Z,98811.87
2019-05-28T11:13:18.566Z,98793.69
2019-05-28T11:15:48.135Z,98794.34
2019-05-28T11:18:17.592Z,98786.80
2019-05-28T11:20:46.997Z,98780.81
2019-05-28T11:23:17.302Z,98779.09
2019-05-28T11:25:46.857Z,98762.25
2019-05-28T11:28:16.687Z,98749.12
2019-05-28T11:30:46.121Z,98748.86
2019-05-28T11:33:17.427Z,98740.27
2019-05-28T11:35:46.776Z,98732.25
2019-05-28T11:38:16.357Z,98719.86
2019-05-28T11:40:45.750Z,98713.98
2019-05-28T11:43:15.127Z,98718.07
2019-05-28T11:45:44.740Z,98711.02
2019-05-28T11:48:14.304Z,98703.15
2019-05-28T11:50:43.727Z,98692.20
2019-05-28T11:53:13.158Z,98698.72
2019-05-28T11:55:42.669Z,98693.88
2019-05-28T11:58:12.026Z,98684.16
2019-05-28T12:00:41.625Z,98675.36
2019-05-28T12:03:11.100Z,98668.73
2019-05-28T12:05:40.495Z,98660.42
2019-05-28T12:08:09.897Z,98654.77
2019-05-28T12:10:39.381Z,98656.98
2019-05-28T12:13:10.934Z,98643.50
2019-05-28T12:15:40.014Z,98632.81
2019-05-28T12:18:09.391Z,98632.88
2019-05-28T12:20:38.951Z,98624.22
2019-05-28T12:23:11.761Z,98616.64
2019-05-28T12:25:39.570Z,98615.28
2019-05-28T12:28:09.066Z,98611.88
2019-05-28T12:30:38.697Z,98604.55
2019-05-28T12:33:08.159Z,98606.95
2019-05-28T12:35:42.462Z,98606.53
2019-05-28T12:38:08.762Z,98601.56
2019-05-28T12:40:47.930Z,98596.97
2019-05-28T12:43:09.249Z,98585.11
2019-05-28T12:45:38.753Z,98579.75
2019-05-28T12:48:12.495Z,98586.05
2019-05-28T12:50:39.344Z,98575.70
2019-05-28T12:53:08.773Z,98574.10
2019-05-28T12:55:38.238Z,98570.00
2019-05-28T12:58:07.722Z,98574.02
2019-05-28T13:00:37.447Z,98562.22
2019-05-28T13:03:06.835Z,98570.55
2019-05-28T13:05:36.398Z,98566.05
2019-05-28T13:08:09.836Z,98566.48
2019-05-28T13:10:37.218Z,98564.62
2019-05-28T13:13:06.616Z,98560.02
2019-05-28T13:15:41.495Z,98550.00
2019-05-28T13:18:07.230Z,98544.16
2019-05-28T13:20:36.697Z,98542.86
2019-05-28T13:23:06.208Z,98540.98
2019-05-28T13:25:35.614Z,98540.77
2019-05-28T13:28:04.985Z,98538.25
2019-05-28T13:30:34.489Z,98522.79
2019-05-28T13:33:04.037Z,98525.59
2019-05-28T13:35:33.422Z,98523.77
2019-05-28T13:38:02.865Z,98515.96
2019-05-28T13:40:32.398Z,98513.16
2019-05-28T13:43:01.881Z,98519.05
2019-05-28T13:45:31.289Z,98519.06
2019-05-28T13:48:00.673Z,98514.29
2019-05-28T13:50:30.138Z,98509.05
2019-05-28T13:52:59.641Z,98502.05
2019-05-28T13:55:29.020Z,98500.92
2019-05-28T13:57:58.424Z,98500.22
2019-05-28T14:00:29.660Z,98499.14
2019-05-28T14:02:59.208Z,98490.91
2019-05-28T14:05:28.602Z,98488.04
2019-05-28T14:07:58.001Z,98485.34
2019-05-28T14:10:27.599Z,98488.11
2019-05-28T14:12:57.148Z,98487.88
2019-05-28T14:15:26.541Z,98481.72
2019-05-28T14:17:56.129Z,98480.13
2019-05-28T14:20:25.703Z,98476.56
2019-05-28T14:22:55.201Z,98473.52
2019-05-28T14:25:24.651Z,98467.61
2019-05-28T14:27:54.052Z,98467.14
2019-05-28T14:30:24.189Z,98457.03
2019-05-28T14:32:53.649Z,98456.66
2019-05-28T14:35:23.107Z,98449.37
2019-05-28T14:37:52.612Z,98450.58
2019-05-28T14:40:24.832Z,98456.20
2019-05-28T14:42:53.175Z,98456.08
2019-05-28T14:45:23.273Z,98456.33
2019-05-28T14:47:53.055Z,98442.66
2019-05-28T14:50:23.535Z,98443.61
2019-05-28T14:52:52.943Z,98435.88
2019-05-28T14:55:22.492Z,98428.10
2019-05-28T14:57:51.979Z,98433.69
2019-05-28T15:00:22.790Z,98431.00
2019-05-28T15:02:52.200Z,98428.03
2019-05-28T15:05:21.769Z,98423.80
2019-05-28T15:07:51.363Z,98428.19
2019-05-28T15:10:20.992Z,98427.30
2019-05-28T15:12:50.505Z,98420.94
2019-05-28T15:15:34.506Z,98430.67
2019-05-28T15:17:51.362Z,98427.48
2019-05-28T15:20:20.931Z,98423.58
2019-05-28T15:22:50.447Z,98419.19
2019-05-28T15:25:21.280Z,98417.86
2019-05-28T15:27:50.680Z,98415.95
2019-05-28T15:30:20.630Z,98411.84
2019-05-28T15:32:51.266Z,98417.31
2019-05-28T15:35:20.831Z,98416.45
2019-05-28T15:37:50.241Z,98411.02
2019-05-28T15:40:20.751Z,98408.91
2019-05-28T15:43:05.067Z,98405.98
2019-05-28T15:45:21.403Z,98407.92
2019-05-28T15:47:50.784Z,98406.91
2019-05-28T15:50:20.394Z,98405.33
2019-05-28T15:52:50.128Z,98405.38
2019-05-28T15:55:19.500Z,98412.77
2019-05-28T15:57:48.971Z,98403.87
2019-05-28T16:00:21.494Z,98409.11
2019-05-28T16:02:50.912Z,98409.40
2019-05-28T16:05:20.473Z,98411.81
2019-05-28T16:07:49.976Z,98406.50
2019-05-28T16:10:19.943Z,98409.36
2019-05-28T16:12:49.304Z,98406.56
2019-05-28T16:15:19.136Z,98413.75
2019-05-28T16:17:48.612Z,98408.28
2019-05-28T16:20:18.034Z,98413.94
2019-05-28T16:22:47.441Z,98409.88
2019-05-28T16:25:17.300Z,98410.64
2019-05-28T16:27:46.797Z,98412.80
2019-05-28T16:30:16.448Z,98413.20
2019-05-28T16:32:45.830Z,98414.20
2019-05-28T16:35:16.877Z,98413.80
2019-05-28T16:37:46.297Z,98410.99
2019-05-28T16:40:16.653Z,98411.30
2019-05-28T16:42:46.285Z,98412.31
2019-05-28T16:45:16.418Z,98407.02
2019-05-28T16:47:45.793Z,98406.58
2019-05-28T16:50:15.575Z,98416.51
2019-05-28T16:52:45.187Z,98411.55
2019-05-28T16:55:14.757Z,98417.25
2019-05-28T16:57:45.594Z,98409.50
2019-05-28T17:00:16.101Z,98408.91
2019-05-28T17:02:45.559Z,98410.88
2019-05-28T17:05:15.375Z,98410.51
2019-05-28T17:07:45.130Z,98410.89
2019-05-28T17:10:31.773Z,98413.20
2019-05-28T17:12:47.942Z,98416.11
2019-05-28T17:15:18.038Z,98414.29
2019-05-28T17:17:47.707Z,98418.86
2019-05-28T17:20:18.278Z,98421.73
2019-05-28T17:22:47.722Z,98422.83
2019-05-28T17:25:17.387Z,98423.41
2019-05-28T17:27:46.934Z,98429.86
2019-05-28T17:30:22.383Z,98430.42
2019-05-28T17:32:47.566Z,98432.15
2019-05-28T17:35:17.300Z,98431.94
2019-05-28T17:37:47.139Z,98430.30
2019-05-28T17:40:21.834Z,98440.09
2019-05-28T17:42:47.751Z,98439.66
2019-05-28T17:45:19.034Z,98448.56
2019-05-28T17:47:48.502Z,98445.83
2019-05-28T17:50:18.522Z,98451.20
2019-05-28T17:52:51.363Z,98449.82
2019-05-28T17:55:19.483Z,98454.31
2019-05-28T17:57:48.868Z,98454.55
2019-05-28T18:00:18.498Z,98460.00
2019-05-28T18:02:48.752Z,98452.41
2019-05-28T18:05:18.574Z,98458.73
2019-05-28T18:07:48.155Z,98454.10
2019-05-28T18:10:18.244Z,98455.46
2019-05-28T18:12:47.741Z,98457.81
2019-05-28T18:15:17.775Z,98464.80
2019-05-28T18:17:47.184Z,98466.20
2019-05-28T18:20:17.140Z,98475.53
2019-05-28T18:22:46.671Z,98481.63
2019-05-28T18:25:19.407Z,98477.56
2019-05-28T18:27:47.558Z,98490.59
2019-05-28T18:30:17.582Z,98486.56
2019-05-28T18:32:47.083Z,98497.80
2019-05-28T18:35:16.481Z,98507.10
2019-05-28T18:37:46.045Z,98501.80
2019-05-28T18:40:17.175Z,98500.11
2019-05-28T18:42:46.556Z,98501.16
2019-05-28T18:45:16.268Z,98509.39
2019-05-28T18:47:47.219Z,98512.41
2019-05-28T18:50:17.586Z,98508.41
2019-05-28T18:52:47.264Z,98513.17
2019-05-28T18:55:17.210Z,98515.43
2019-05-28T18:57:50.796Z,98514.47
2019-05-28T19:00:18.542Z,98518.59
2019-05-28T19:02:47.947Z,98513.59
2019-05-28T19:05:19.074Z,98520.98
2019-05-28T19:07:48.692Z,98520.67
2019-05-28T19:10:18.179Z,98518.28
2019-05-28T19:12:48.251Z,98524.83
2019-05-28T19:15:18.170Z,98520.67
2019-05-28T19:17:47.654Z,98527.81
2019-05-28T19:20:17.134Z,98527.70
2019-05-28T19:22:46.536Z,98525.25
2019-05-28T19:25:16.451Z,98537.59
2019-05-28T19:27:45.931Z,98540.92
2019-05-28T19:30:15.466Z,98541.23
2019-05-28T19:32:45.253Z,98546.50
2019-05-28T19:35:14.822Z,98552.80
2019-05-28T19:37:44.918Z,98554.81
2019-05-28T19:40:17.237Z,98554.88
2019-05-28T19:42:46.614Z,98565.33
2019-05-28T19:45:16.617Z,98568.97
2019-05-28T19:47:46.124Z,98569.23
2019-05-28T19:50:15.623Z,98569.23
2019-05-28T19:52:45.061Z,98574.78
2019-05-28T19:55:14.551Z,98586.89
2019-05-28T19:57:43.944Z,98597.27
2019-05-28T20:00:16.161Z,98599.20
2019-05-28T20:02:45.653Z,98601.52
2019-05-28T20:05:15.549Z,98599.78
2019-05-28T20:07:45.051Z,98600.17
2019-05-28T20:10:15.325Z,98614.84
2019-05-28T20:12:44.830Z,98614.61
2019-05-28T20:15:15.248Z,98624.38
2019-05-28T20:17:46.247Z,98625.97
2019-05-28T20:20:17.131Z,98618.30
2019-05-28T20:22:47.756Z,98629.96
2019-05-28T20:25:17.574Z,98623.28
2019-05-28T20:27:47.539Z,98628.42
2019-05-28T20:30:19.194Z,98634.81
2019-05-28T20:32:49.198Z,98631.81
2019-05-28T20:35:19.081Z,98626.36
2019-05-28T20:37:48.735Z,98634.56
2019-05-28T20:40:18.211Z,98634.42
2019-05-28T20:42:47.597Z,98639.36
2019-05-28T20:45:17.222Z,98651.92
2019-05-28T20:47:46.705Z,98653.92
2019-05-28T20:50:16.796Z,98648.66
2019-05-28T20:52:46.228Z,98644.15
2019-05-28T20:55:16.619Z,98648.22
2019-05-28T20:57:47.066Z,98655.31
2019-05-28T21:00:18.252Z,98649.27
2019-05-28T21:02:47.647Z,98654.38
2019-05-28T21:05:17.329Z,98667.50
2019-05-28T21:07:47.870Z,98660.77
2019-05-28T21:10:17.434Z,98655.80
2019-05-28T21:12:46.813Z,98664.89
2019-05-28T21:15:16.980Z,98653.14
2019-05-28T21:17:46.355Z,98655.66
2019-05-28T21:20:16.241Z,98661.05
2019-05-28T21:22:45.774Z,98656.89
2019-05-28T21:25:15.165Z,98660.08
2019-05-28T21:27:44.572Z,98655.23
2019-05-28T21:30:16.635Z,98668.16
2019-05-28T21:32:46.156Z,98659.61
2019-05-28T21:35:15.735Z,98663.97
2019-05-28T21:37:45.145Z,98670.67
2019-05-28T21:40:16.642Z,98677.19
2019-05-28T21:42:58.530Z,98682.08
2019-05-28T21:45:17.624Z,98681.73
2019-05-28T21:47:47.018Z,98684.07
2019-05-28T21:50:16.748Z,98686.26
2019-05-28T21:52:46.283Z,98682.07
2019-05-28T21:55:15.990Z,98692.12
2019-05-28T21:57:45.564Z,98707.91
2019-05-28T22:00:27.417Z,98706.88
2019-05-28T22:02:56.896Z,98709.06
2019-05-28T22:05:26.396Z,98707.19
2019-05-28T22:07:56.005Z,98712.23
2019-05-28T22:10:25.494Z,98703.96
2019-05-28T22:12:55.633Z,98706.64
2019-05-28T22:15:25.451Z,98711.34
2019-05-28T22:17:55.955Z,98711.64
2019-05-28T22:20:25.403Z,98711.98
2019-05-28T22:22:54.834Z,98708.80
2019-05-28T22:25:24.418Z,98710.97
2019-05-28T22:27:53.894Z,98713.19
2019-05-28T22:30:24.128Z,98707.95
2019-05-28T22:32:53.880Z,98710.06
2019-05-28T22:35:23.354Z,98716.91
2019-05-28T22:37:52.856Z,98720.58
2019-05-28T22:40:22.533Z,98719.03
2019-05-28T22:42:52.013Z,98716.05
2019-05-28T22:45:21.444Z,98712.00
2019-05-28T22:47:51.251Z,98715.84
2019-05-28T22:50:23.222Z,98716.02
2019-05-28T22:52:52.317Z,98719.87
2019-05-28T22:55:21.699Z,98716.47
2019-05-28T22:57:51.093Z,98727.70
2019-05-28T23:00:20.993Z,98729.02
2019-05-28T23:02:50.472Z,98740.08
2019-05-28T23:05:19.854Z,98745.09
2019-05-28T23:07:49.275Z,98738.00
2019-05-28T23:10:18.955Z,98742.53
2019-05-28T23:12:48.430Z,98746.38
2019-05-28T23:15:17.906Z,98745.70
2019-05-28T23:17:47.384Z,98748.83
2019-05-28T23:20:16.985Z,98748.94
2019-05-28T23:22:46.414Z,98755.86
2019-05-28T23:25:16.107Z,98751.84
2019-05-28T23:27:45.594Z,98755.30
2019-05-28T23:30:25.330Z,98753.63
2019-05-28T23:32:46.754Z,98752.30
2019-05-28T23:35:16.512Z,98753.98
2019-05-28T23:37:46.017Z,98757.39
2019-05-28T23:40:16.439Z,98752.91
2019-05-28T23:42:45.802Z,98760.00
2019-05-28T23:45:17.152Z,98758.82
2019-05-28T23:47:46.610Z,98755.12
2019-05-28T23:50:18.200Z,98766.29
2019-05-28T23:52:47.723Z,98761.23
2019-05-28T23:55:18.098Z,98762.73
2019-05-28T23:57:47.554Z,98764.81
